createdAt,value
2022-08-27T00:02:10.219Z,61.62
2022-08-27T00:07:14.009Z,62.20
2022-08-27T00:12:18.145Z,61.55
2022-08-27T00:17:20.912Z,61.39
2022-08-27T00:22:23.665Z,60.85
2022-08-27T00:27:27.847Z,60.93
2022-08-27T00:32:30.624Z,60.24
2022-08-27T00:37:33.772Z,60.10
2022-08-27T00:42:38.396Z,58.89
2022-08-27T00:47:45.580Z,58.75
2022-08-27T00:52:53.697Z,58.86
2022-08-27T00:58:03.888Z,58.61
2022-08-27T01:03:09.123Z,58.66
2022-08-27T01:08:15.562Z,58.75
2022-08-27T01:13:59.288Z,58.09
2022-08-27T01:18:45.936Z,58.28
2022-08-27T01:23:55.621Z,58.37
2022-08-27T01:28:59.978Z,57.97
2022-08-27T01:34:07.029Z,58.17
2022-08-27T01:39:09.873Z,57.89
2022-08-27T01:44:20.784Z,58.88
2022-08-27T01:49:23.748Z,58.16
2022-08-27T01:54:26.501Z,58.48
2022-08-27T01:59:39.326Z,58.30
2022-08-27T02:04:43.115Z,58.33
2022-08-27T02:09:45.928Z,58.72
2022-08-27T02:14:50.137Z,59.19
2022-08-27T02:19:53.341Z,59.31
2022-08-27T02:24:56.205Z,59.87
2022-08-27T02:30:00.452Z,60.38
2022-08-27T02:35:04.562Z,60.58
2022-08-27T02:40:09.616Z,60.18
2022-08-27T02:45:15.772Z,59.33
2022-08-27T02:50:18.746Z,60.44
2022-08-27T02:55:22.337Z,61.53
2022-08-27T03:00:28.739Z,61.67
2022-08-27T03:05:31.777Z,62.31
2022-08-27T03:10:34.990Z,62.99
2022-08-27T03:15:39.247Z,62.88
2022-08-27T03:20:44.453Z,62.92
2022-08-27T03:25:51.373Z,63.08
2022-08-27T03:31:00.426Z,63.84
2022-08-27T03:36:03.505Z,64.07
2022-08-27T03:41:06.941Z,64.98
2022-08-27T03:46:11.620Z,65.37
2022-08-27T03:51:15.412Z,64.96
2022-08-27T03:56:18.200Z,65.49
2022-08-27T04:01:22.454Z,65.89
2022-08-27T04:06:25.253Z,66.16
2022-08-27T04:11:29.338Z,66.31
2022-08-27T04:16:34.022Z,67.06
2022-08-27T04:21:37.303Z,67.26
2022-08-27T04:26:41.053Z,66.76
2022-08-27T04:31:45.357Z,66.94
2022-08-27T04:36:48.405Z,67.16
2022-08-27T04:41:51.553Z,67.31
2022-08-27T04:46:58.505Z,67.35
2022-08-27T04:52:01.290Z,67.50
2022-08-27T04:57:06.494Z,67.88
2022-08-27T05:02:11.015Z,67.63
2022-08-27T05:07:13.779Z,67.63
2022-08-27T05:12:16.525Z,67.62
2022-08-27T05:17:21.869Z,67.46
2022-08-27T05:22:24.655Z,66.64
2022-08-27T05:27:27.489Z,66.69
2022-08-27T05:32:32.246Z,67.20
2022-08-27T05:37:35.027Z,66.64
2022-08-27T05:42:37.914Z,65.92
2022-08-27T05:47:44.851Z,66.13
2022-08-27T05:52:47.828Z,66.47
2022-08-27T05:57:51.326Z,66.61
2022-08-27T06:02:55.498Z,66.78
2022-08-27T06:07:58.377Z,66.33
2022-08-27T06:13:01.132Z,66.01
2022-08-27T06:18:05.507Z,65.67
2022-08-27T06:23:08.429Z,65.33
2022-08-27T06:28:12.193Z,65.00
2022-08-27T06:33:16.871Z,65.51
2022-08-27T06:38:19.457Z,65.34
2022-08-27T06:43:25.107Z,65.29
2022-08-27T06:48:29.462Z,65.56
2022-08-27T06:53:36.336Z,65.70
2022-08-27T06:58:39.181Z,65.47
2022-08-27T07:03:43.965Z,65.42
2022-08-27T07:08:53.210Z,65.71
2022-08-27T07:13:57.206Z,65.79
2022-08-27T07:19:04.275Z,66.00
2022-08-27T07:24:09.070Z,65.73
2022-08-27T07:29:14.368Z,65.67
2022-08-27T07:34:18.559Z,65.08
2022-08-27T07:39:24.199Z,64.47
2022-08-27T07:44:28.111Z,63.10
2022-08-27T07:49:37.660Z,62.05
2022-08-27T07:54:41.406Z,61.54
2022-08-27T07:59:44.289Z,61.17
2022-08-27T08:04:48.455Z,59.72
2022-08-27T08:09:51.068Z,59.91
2022-08-27T08:14:57.731Z,59.72
2022-08-27T08:20:19.834Z,59.08
2022-08-27T08:25:25.034Z,57.89
2022-08-27T08:30:29.467Z,57.44
2022-08-27T08:35:41.285Z,57.14
2022-08-27T08:40:46.822Z,56.03
2022-08-27T08:45:51.141Z,55.71
2022-08-27T08:51:02.931Z,55.97
2022-08-27T08:56:10.659Z,55.82
2022-08-27T09:01:16.166Z,55.42
2022-08-27T09:06:28.134Z,55.65
2022-08-27T09:11:42.312Z,55.78
2022-08-27T09:16:45.146Z,56.21
2022-08-27T09:21:53.614Z,56.04
2022-08-27T09:26:56.497Z,55.67
2022-08-27T09:32:01.837Z,55.74
2022-08-27T09:37:11.293Z,54.72
2022-08-27T09:42:26.623Z,54.75
2022-08-27T09:47:29.531Z,54.41
2022-08-27T09:52:37.887Z,54.53
2022-08-27T09:57:43.041Z,54.44
2022-08-27T10:02:53.829Z,54.04
2022-08-27T10:08:02.332Z,54.30
2022-08-27T10:13:10.789Z,53.92
2022-08-27T10:18:22.894Z,53.58
2022-08-27T10:23:36.437Z,53.56
2022-08-27T10:28:55.124Z,53.03
2022-08-27T10:34:12.531Z,52.44
2022-08-27T10:39:25.142Z,51.99
2022-08-27T10:44:43.296Z,51.64
2022-08-27T10:49:53.775Z,51.20
2022-08-27T10:55:02.066Z,50.71
2022-08-27T11:00:14.128Z,50.93
2022-08-27T11:05:22.038Z,50.31
2022-08-27T11:10:30.854Z,49.86
2022-08-27T11:15:37.561Z,48.42
2022-08-27T11:20:46.639Z,48.37
2022-08-27T11:25:55.642Z,47.63
2022-08-27T11:31:09.201Z,47.23
2022-08-27T11:36:54.213Z,46.01
2022-08-27T11:42:08.508Z,46.02
2022-08-27T11:47:14.792Z,45.58
2022-08-27T11:52:29.400Z,45.66
2022-08-27T11:57:36.805Z,44.78
2022-08-27T12:02:39.942Z,45.09
2022-08-27T12:07:45.690Z,44.47
2022-08-27T12:13:02.574Z,43.96
2022-08-27T12:18:25.186Z,43.55
2022-08-27T12:23:44.614Z,43.12
2022-08-27T12:28:48.775Z,42.85
2022-08-27T12:33:54.957Z,42.03
2022-08-27T12:38:59.575Z,42.18
2022-08-27T12:44:10.574Z,41.18
2022-08-27T12:49:36.987Z,41.13
2022-08-27T12:54:46.826Z,41.39
2022-08-27T13:00:08.491Z,41.05
2022-08-27T13:05:13.424Z,41.05
2022-08-27T13:10:18.860Z,42.23
2022-08-27T13:15:23.256Z,43.01
2022-08-27T13:20:27.629Z,43.67
2022-08-27T13:25:34.339Z,43.98
2022-08-27T13:30:42.013Z,44.43
2022-08-27T13:35:46.200Z,47.43
2022-08-27T13:40:56.468Z,49.96
2022-08-27T13:46:02.489Z,52.55
2022-08-27T13:51:06.968Z,57.13
2022-08-27T13:56:10.325Z,59.58
2022-08-27T14:01:17.153Z,61.36
2022-08-27T14:06:31.998Z,65.22
2022-08-27T14:11:39.610Z,65.66
2022-08-27T14:16:43.848Z,62.74
2022-08-27T14:21:46.640Z,61.03
2022-08-27T14:26:51.050Z,60.26
2022-08-27T14:31:55.381Z,58.41
2022-08-27T14:36:58.184Z,52.38
2022-08-27T14:42:01.170Z,48.80
2022-08-27T14:47:09.559Z,47.69
2022-08-27T14:52:14.362Z,44.00
2022-08-27T14:57:17.236Z,42.47
2022-08-27T15:02:23.231Z,41.87
2022-08-27T15:07:25.990Z,41.28
2022-08-27T15:12:32.319Z,39.66
2022-08-27T15:17:37.106Z,38.79
2022-08-27T15:22:44.145Z,39.69
2022-08-27T15:27:47.152Z,40.23
2022-08-27T15:32:51.625Z,39.85
2022-08-27T15:37:55.284Z,38.36
2022-08-27T15:43:02.063Z,37.90
2022-08-27T15:48:06.805Z,37.30
2022-08-27T15:53:10.794Z,36.67
2022-08-27T15:58:13.878Z,37.13
2022-08-27T16:03:18.087Z,37.68
2022-08-27T16:08:20.863Z,36.10
2022-08-27T16:13:24.901Z,36.92
2022-08-27T16:18:31.209Z,37.12
2022-08-27T16:23:36.243Z,37.97
2022-08-27T16:28:39.078Z,38.30
2022-08-27T16:33:44.208Z,38.26
2022-08-27T16:38:47.042Z,39.45
2022-08-27T16:43:49.970Z,40.99
2022-08-27T16:49:11.738Z,42.17
2022-08-27T16:54:16.615Z,41.86
2022-08-27T16:59:19.365Z,42.01
2022-08-27T17:04:29.582Z,42.54
2022-08-27T17:09:40.849Z,42.41
2022-08-27T17:14:46.352Z,42.61
2022-08-27T17:19:50.494Z,43.17
2022-08-27T17:24:54.923Z,44.04
2022-08-27T17:29:59.697Z,45.23
2022-08-27T17:35:06.244Z,45.62
2022-08-27T17:40:14.821Z,46.22
2022-08-27T17:45:18.632Z,45.90
2022-08-27T17:50:25.257Z,46.51
2022-08-27T17:55:30.720Z,47.06
2022-08-27T18:00:36.599Z,47.20
2022-08-27T18:05:40.769Z,47.80
2022-08-27T18:10:47.750Z,48.57
2022-08-27T18:15:52.113Z,48.61
2022-08-27T18:20:56.258Z,49.21
2022-08-27T18:25:59.583Z,49.43
2022-08-27T18:31:06.546Z,50.30
2022-08-27T18:36:11.405Z,49.97
2022-08-27T18:41:14.910Z,50.80
2022-08-27T18:46:18.568Z,50.36
2022-08-27T18:51:23.358Z,51.34
2022-08-27T18:56:26.536Z,51.71
2022-08-27T19:01:30.865Z,51.93
2022-08-27T19:06:35.161Z,52.92
2022-08-27T19:11:38.061Z,52.28
2022-08-27T19:16:44.368Z,53.54
2022-08-27T19:21:51.518Z,53.93
2022-08-27T19:26:54.981Z,54.35
2022-08-27T19:31:57.841Z,54.57
2022-08-27T19:37:02.873Z,54.87
2022-08-27T19:42:06.616Z,55.23
2022-08-27T19:47:11.219Z,55.48
2022-08-27T19:52:15.424Z,55.26
2022-08-27T19:57:18.389Z,55.04
2022-08-27T20:02:21.152Z,54.99
2022-08-27T20:07:25.380Z,54.79
2022-08-27T20:12:28.190Z,54.76
2022-08-27T20:17:30.989Z,54.65
2022-08-27T20:22:35.261Z,54.36
2022-08-27T20:27:38.436Z,54.15
2022-08-27T20:32:41.469Z,54.40
2022-08-27T20:37:46.200Z,54.38
2022-08-27T20:42:49.001Z,54.70
2022-08-27T20:47:53.420Z,54.80
2022-08-27T20:52:57.439Z,54.60
2022-08-27T20:58:17.586Z,55.50
2022-08-27T21:03:20.755Z,56.42
2022-08-27T21:08:24.916Z,56.26
2022-08-27T21:13:29.541Z,56.62
2022-08-27T21:18:32.825Z,56.91
2022-08-27T21:23:38.828Z,57.15
2022-08-27T21:28:44.280Z,57.33
2022-08-27T21:33:47.069Z,57.47
2022-08-27T21:38:51.322Z,57.65
2022-08-27T21:43:54.373Z,57.60
2022-08-27T21:48:58.665Z,57.57
2022-08-27T21:54:03.316Z,57.68
2022-08-27T21:59:08.529Z,58.12
2022-08-27T22:04:11.433Z,58.47
2022-08-27T22:09:15.680Z,58.57
2022-08-27T22:14:18.869Z,58.68
2022-08-27T22:19:22.333Z,59.10
2022-08-27T22:24:26.497Z,58.95
2022-08-27T22:29:30.688Z,59.23
2022-08-27T22:34:33.857Z,60.05
2022-08-27T22:39:38.075Z,60.50
2022-08-27T22:44:41.277Z,60.96
2022-08-27T22:49:45.035Z,61.05
2022-08-27T22:54:54.830Z,61.97
2022-08-27T22:59:58.706Z,62.11
2022-08-27T23:05:05.874Z,63.00
2022-08-27T23:10:13.129Z,63.62
2022-08-27T23:15:18.565Z,63.95
2022-08-27T23:20:22.076Z,64.58
2022-08-27T23:25:44.374Z,64.89
2022-08-27T23:30:47.252Z,65.55
2022-08-27T23:35:51.747Z,65.87
2022-08-27T23:40:56.243Z,65.51
2022-08-27T23:45:59.115Z,65.30
2022-08-27T23:51:02.121Z,64.84
2022-08-27T23:56:07.097Z,64.47
